Time;durP1;ratioP1;P1;durP2;ratioP2;P2;SDS_P1;SDS_P2;PMS_P1;PMS_P2;Temp;Humidity;BMP_temperature;BMP_pressure;BME280_temperature;BME280_humidity;BME280_pressure;Samples;Min_cycle;Max_cycle;Signal;HPM_P1;HPM_P2
2021/05/09 00:00:53;;;;;;;47.20;25.90;;;;;;;4.26;50.58;99461.47;125542;1104;102991;-74
2021/05/09 00:03:22;;;;;;;44.60;25.57;;;;;;;4.24;50.53;99463.30;125525;1105;103186;-73
2021/05/09 00:05:51;;;;;;;44.63;26.10;;;;;;;4.25;50.34;99463.23;125466;1104;103059;-73
2021/05/09 00:08:19;;;;;;;40.60;22.23;;;;;;;4.28;50.91;99454.36;127655;1104;101490;-73
2021/05/09 00:10:47;;;;;;;37.60;21.37;;;;;;;4.31;50.85;99452.45;127644;1104;100720;-73
2021/05/09 00:13:15;;;;;;;43.63;21.93;;;;;;;4.34;50.49;99458.52;127370;1100;101070;-73
2021/05/09 00:15:43;;;;;;;40.40;21.20;;;;;;;4.31;50.29;99455.08;125475;1104;103007;-73
2021/05/09 00:18:11;;;;;;;36.97;20.30;;;;;;;4.32;50.49;99455.92;125516;1100;103123;-73
2021/05/09 00:20:39;;;;;;;37.90;20.67;;;;;;;4.22;50.38;99450.19;125562;1104;102990;-73
2021/05/09 00:23:07;;;;;;;38.13;21.50;;;;;;;4.21;50.76;99453.73;125615;1104;103091;-73
2021/05/09 00:25:35;;;;;;;36.10;20.47;;;;;;;4.25;50.99;99451.85;125577;1104;103219;-76
2021/05/09 00:28:04;;;;;;;39.30;19.93;;;;;;;4.28;51.32;99454.36;125562;1104;103155;-75
2021/05/09 00:30:31;;;;;;;35.40;18.40;;;;;;;4.29;51.28;99454.28;125526;1104;103458;-74
2021/05/09 00:32:59;;;;;;;36.97;20.63;;;;;;;4.32;51.43;99451.53;125661;1104;103005;-74
2021/05/09 00:35:27;;;;;;;41.07;22.03;;;;;;;4.36;51.26;99454.88;125528;1104;103090;-74
2021/05/09 00:37:55;;;;;;;35.43;18.33;;;;;;;4.41;51.70;99459.98;125536;1099;103004;-76
2021/05/09 00:40:23;;;;;;;33.97;18.10;;;;;;;4.41;51.20;99460.82;125546;1104;103087;-76
2021/05/09 00:42:55;;;;;;;35.30;17.97;;;;;;;4.40;51.67;99455.63;125528;1104;103087;-76
2021/05/09 00:45:23;;;;;;;39.87;21.80;;;;;;;4.40;51.90;99450.36;125618;1104;102989;-76
2021/05/09 00:47:51;;;;;;;35.83;17.97;;;;;;;4.41;52.03;99458.19;125578;1104;103058;-76
2021/05/09 00:50:20;;;;;;;32.23;16.70;;;;;;;4.40;51.90;99464.38;125636;1104;103123;-74
2021/05/09 00:52:49;;;;;;;35.97;17.80;;;;;;;4.39;51.51;99456.55;125547;1100;103014;-75
2021/05/09 00:55:20;;;;;;;31.77;16.07;;;;;;;4.40;51.98;99453.84;125536;1104;103018;-74
2021/05/09 00:57:48;;;;;;;34.13;17.90;;;;;;;4.40;52.17;99451.20;125626;1104;103116;-73
2021/05/09 01:00:17;;;;;;;34.10;16.73;;;;;;;4.36;51.61;99452.25;125597;1104;103062;-74
2021/05/09 01:02:45;;;;;;;31.67;16.90;;;;;;;4.32;51.62;99448.90;125552;1100;103081;-73
2021/05/09 01:05:14;;;;;;;29.27;15.60;;;;;;;4.33;51.89;99449.73;125555;1104;103017;-73
2021/05/09 01:07:42;;;;;;;29.10;16.17;;;;;;;4.32;52.20;99450.66;125429;1104;102994;-73
2021/05/09 01:10:13;;;;;;;30.03;15.13;;;;;;;4.30;52.03;99448.09;125536;1104;103084;-73
2021/05/09 01:12:41;;;;;;;30.27;15.67;;;;;;;4.33;51.72;99449.73;125560;1104;103081;-74
2021/05/09 01:15:10;;;;;;;33.27;16.30;;;;;;;4.37;52.63;99446.06;125547;1100;103087;-74
2021/05/09 01:17:39;;;;;;;28.43;15.00;;;;;;;4.41;51.92;99449.45;125574;1105;103108;-74
2021/05/09 01:20:12;;;;;;;30.23;14.67;;;;;;;4.40;51.93;99447.73;125506;1100;103115;-75
2021/05/09 01:22:42;;;;;;;30.77;15.77;;;;;;;4.41;52.42;99457.34;125573;1104;103123;-73
2021/05/09 01:25:12;;;;;;;33.73;16.93;;;;;;;4.39;52.21;99457.39;125562;1104;102990;-73
2021/05/09 01:27:39;;;;;;;32.93;16.83;;;;;;;4.38;52.06;99460.95;125583;1104;103020;-74
2021/05/09 01:30:09;;;;;;;33.07;14.77;;;;;;;4.38;52.88;99453.05;125553;1104;103241;-73
2021/05/09 01:32:37;;;;;;;29.30;15.45;;;;;;;4.37;52.70;99453.13;125564;1104;102990;-71
2021/05/09 01:35:06;;;;;;;31.67;15.20;;;;;;;4.38;52.66;99450.41;125556;1104;103028;-72
2021/05/09 01:37:34;;;;;;;30.77;15.33;;;;;;;4.32;52.08;99453.29;125515;1099;103219;-72
2021/05/09 01:40:05;;;;;;;29.90;15.67;;;;;;;4.24;52.08;99448.34;125537;1104;102987;-72
2021/05/09 01:42:33;;;;;;;30.20;15.30;;;;;;;4.20;52.41;99454.65;125529;1104;103505;-72
2021/05/09 01:45:00;;;;;;;32.57;16.77;;;;;;;4.13;52.13;99456.69;125486;1100;103019;-72
2021/05/09 01:47:28;;;;;;;34.53;17.83;;;;;;;4.06;52.50;99455.20;125517;1098;103114;-73
2021/05/09 01:49:56;;;;;;;30.77;16.20;;;;;;;4.00;52.73;99461.59;125490;1100;103029;-73
2021/05/09 01:52:24;;;;;;;33.10;17.53;;;;;;;3.93;53.06;99454.84;125540;1104;103062;-73
2021/05/09 01:54:52;;;;;;;33.00;16.97;;;;;;;3.86;52.81;99451.60;125553;1104;103091;-73
2021/05/09 01:57:20;;;;;;;32.70;17.63;;;;;;;3.87;53.02;99453.28;125377;1098;102997;-73
2021/05/09 01:59:48;;;;;;;32.17;16.90;;;;;;;3.88;53.15;99451.52;125449;1104;102993;-72
2021/05/09 02:02:17;;;;;;;34.00;18.70;;;;;;;3.95;52.90;99462.66;125457;1104;103020;-73
2021/05/09 02:04:45;;;;;;;37.13;18.63;;;;;;;3.99;52.79;99457.23;125442;1104;103086;-73
2021/05/09 02:07:14;;;;;;;35.60;18.53;;;;;;;4.06;53.23;99462.27;125472;1104;103133;-73
2021/05/09 02:09:42;;;;;;;34.40;17.60;;;;;;;4.08;53.08;99463.91;127569;1105;100961;-72
2021/05/09 02:12:10;;;;;;;28.63;15.00;;;;;;;4.00;52.77;99456.32;126255;1104;103086;-71
2021/05/09 02:14:38;;;;;;;29.20;15.33;;;;;;;3.98;53.19;99452.89;125497;1104;104205;-73
2021/05/09 02:17:06;;;;;;;28.70;14.17;;;;;;;3.98;53.66;99457.28;125493;1104;103087;-73
2021/05/09 02:19:34;;;;;;;31.40;15.43;;;;;;;4.00;53.39;99458.95;125522;1104;103257;-73
2021/05/09 02:22:03;;;;;;;28.80;14.73;;;;;;;4.02;52.96;99459.75;125486;1104;103069;-73
2021/05/09 02:24:31;;;;;;;27.87;13.93;;;;;;;4.03;53.04;99457.96;125548;1104;103063;-73
2021/05/09 02:27:00;;;;;;;30.57;14.80;;;;;;;4.04;53.27;99458.84;125433;1104;103154;-73
2021/05/09 02:29:27;;;;;;;29.60;13.77;;;;;;;4.02;53.76;99454.48;125581;1100;102982;-74
2021/05/09 02:31:55;;;;;;;30.47;13.67;;;;;;;4.02;53.20;99453.61;125542;1104;103126;-73
2021/05/09 02:34:23;;;;;;;27.97;14.50;;;;;;;4.02;53.36;99459.75;125484;1105;103458;-73
2021/05/09 02:36:51;;;;;;;27.67;13.30;;;;;;;4.06;53.25;99471.00;125515;1104;103252;-73
2021/05/09 02:39:19;;;;;;;28.95;12.90;;;;;;;4.06;53.40;99465.73;125509;1104;102994;-74
2021/05/09 02:41:47;;;;;;;26.70;13.23;;;;;;;4.09;53.44;99464.75;125494;1104;103065;-75
2021/05/09 02:44:15;;;;;;;28.37;13.40;;;;;;;4.12;53.58;99460.23;125501;1104;103136;-73
2021/05/09 02:46:43;;;;;;;25.53;12.33;;;;;;;4.14;53.98;99468.93;125503;1100;103065;-73
2021/05/09 02:49:10;;;;;;;28.95;13.50;;;;;;;4.14;54.29;99468.93;125567;1104;102997;-72
2021/05/09 02:51:38;;;;;;;25.40;12.77;;;;;;;4.19;53.52;99463.47;125565;1104;102995;-72
2021/05/09 02:54:06;;;;;;;25.57;12.23;;;;;;;4.18;54.02;99456.48;125555;1100;103208;-73
2021/05/09 02:56:34;;;;;;;23.90;11.30;;;;;;;4.15;53.52;99461.88;125565;1104;103066;-73
2021/05/09 02:59:02;;;;;;;22.80;11.40;;;;;;;4.16;53.56;99467.09;125538;1104;102996;-72
2021/05/09 03:01:30;;;;;;;24.50;11.60;;;;;;;4.19;54.30;99465.27;125584;1104;103042;-73
2021/05/09 03:03:58;;;;;;;23.85;10.90;;;;;;;4.17;54.05;99467.94;125557;1098;103096;-73
2021/05/09 03:06:26;;;;;;;22.73;10.63;;;;;;;4.11;53.67;99476.08;125571;1104;103180;-73
2021/05/09 03:08:54;;;;;;;25.40;12.03;;;;;;;4.06;53.89;99483.33;125591;1098;103149;-72
2021/05/09 03:11:26;;;;;;;23.83;12.37;;;;;;;4.04;54.17;99487.79;125501;1100;102994;-72
2021/05/09 03:13:56;;;;;;;24.13;11.50;;;;;;;4.01;53.67;99486.12;125530;1104;103094;-73
2021/05/09 03:16:24;;;;;;;26.70;12.73;;;;;;;3.92;54.20;99478.57;125552;1104;103091;-73
2021/05/09 03:18:52;;;;;;;24.95;12.05;;;;;;;3.85;54.50;99484.09;125570;1100;103061;-73
2021/05/09 03:21:21;;;;;;;27.47;13.37;;;;;;;3.82;54.39;99486.84;125600;1104;103025;-73
2021/05/09 03:23:49;;;;;;;23.47;10.97;;;;;;;3.80;53.91;99488.67;125598;1104;103089;-74
2021/05/09 03:26:17;;;;;;;25.90;12.03;;;;;;;3.78;53.89;99485.24;125658;1104;103473;-72
2021/05/09 03:28:45;;;;;;;24.85;11.95;;;;;;;3.79;54.68;99492.22;125517;1104;103014;-72
2021/05/09 03:31:13;;;;;;;22.20;10.53;;;;;;;3.81;54.10;99487.77;125574;1104;103021;-74
2021/05/09 03:33:41;;;;;;;22.73;10.00;;;;;;;3.85;54.42;99486.73;125542;1100;103158;-71
2021/05/09 03:36:09;;;;;;;22.53;10.73;;;;;;;3.90;54.05;99496.20;125515;1104;103016;-73
2021/05/09 03:38:37;;;;;;;20.90;9.03;;;;;;;3.93;54.47;99496.08;125551;1104;103066;-72
2021/05/09 03:41:04;;;;;;;23.10;9.63;;;;;;;3.96;54.80;99488.94;125521;1104;102991;-73
2021/05/09 03:43:33;;;;;;;20.17;9.13;;;;;;;4.01;54.74;99496.65;125577;1104;102968;-75
2021/05/09 03:46:01;;;;;;;20.90;9.17;;;;;;;4.06;54.50;99496.48;125550;1104;103068;-74
2021/05/09 03:48:29;;;;;;;20.83;8.00;;;;;;;4.10;55.30;99493.66;125514;1104;102991;-75
2021/05/09 03:50:57;;;;;;;17.67;7.23;;;;;;;4.17;54.67;99491.63;125522;1099;103150;-74
2021/05/09 03:53:27;;;;;;;20.23;8.03;;;;;;;4.27;55.46;99492.15;125558;1104;103123;-73
2021/05/09 03:55:55;;;;;;;16.17;6.30;;;;;;;4.37;55.39;99492.63;125543;1100;103451;-74
2021/05/09 03:58:23;;;;;;;16.30;6.50;;;;;;;4.47;55.54;99493.98;125528;1105;103113;-73
2021/05/09 04:00:51;;;;;;;18.37;6.97;;;;;;;4.57;54.98;99499.72;125545;1100;103086;-74
2021/05/09 04:03:31;;;;;;;15.17;6.27;;;;;;;4.67;55.08;99508.09;125562;1104;103086;-73
2021/05/09 04:05:59;;;;;;;17.47;6.50;;;;;;;4.77;55.32;99502.38;125585;1100;103059;-74
2021/05/09 04:08:28;;;;;;;16.50;7.00;;;;;;;4.86;55.55;99509.05;125552;1100;103089;-73
2021/05/09 04:10:58;;;;;;;17.50;6.30;;;;;;;4.97;56.05;99500.69;125556;1104;102990;-73
2021/05/09 04:13:26;;;;;;;16.93;6.23;;;;;;;5.09;55.60;99493.18;125484;1104;103094;-74
2021/05/09 04:15:54;;;;;;;14.70;5.57;;;;;;;5.21;55.98;99497.89;125569;1104;103474;-74
2021/05/09 04:18:21;;;;;;;14.70;5.90;;;;;;;5.34;55.96;99498.20;125553;1104;103136;-76
2021/05/09 04:20:49;;;;;;;13.60;5.33;;;;;;;5.43;55.78;99505.72;125559;1104;102990;-76
2021/05/09 04:23:19;;;;;;;12.77;5.53;;;;;;;5.52;55.92;99501.81;125642;1104;103017;-73
2021/05/09 04:25:49;;;;;;;15.87;5.47;;;;;;;5.61;55.76;99503.20;125674;1104;103016;-72
2021/05/09 04:28:19;;;;;;;14.70;5.60;;;;;;;5.68;55.89;99496.72;125625;1104;103019;-73
2021/05/09 04:30:48;;;;;;;15.23;5.53;;;;;;;5.75;55.97;99497.28;125541;1100;103441;-72
2021/05/09 04:33:16;;;;;;;16.20;5.50;;;;;;;5.79;55.83;99502.34;125648;1104;103123;-74
2021/05/09 04:35:45;;;;;;;17.90;6.10;;;;;;;5.87;55.95;99509.05;125620;1104;103483;-74
2021/05/09 04:38:14;;;;;;;15.10;5.43;;;;;;;5.93;56.07;99508.77;125571;1104;103001;-73
2021/05/09 04:40:42;;;;;;;15.33;6.90;;;;;;;6.00;56.01;99511.98;125565;1105;102990;-73
2021/05/09 04:43:12;;;;;;;14.65;6.00;;;;;;;6.07;56.14;99508.16;125522;1104;103155;-75
2021/05/09 04:45:40;;;;;;;13.23;5.10;;;;;;;6.12;56.19;99503.52;125519;1099;103021;-73
2021/05/09 04:48:08;;;;;;;13.80;4.97;;;;;;;6.21;56.34;99512.78;125542;1104;103065;-73
2021/05/09 04:50:37;;;;;;;10.93;4.40;;;;;;;6.28;56.27;99513.37;125521;1105;103068;-74
2021/05/09 04:53:22;;;;;;;15.93;6.33;;;;;;;6.35;56.40;99517.40;125527;1104;103062;-74
2021/05/09 04:55:51;;;;;;;11.70;4.97;;;;;;;6.44;56.53;99514.32;125428;1104;102993;-77
2021/05/09 04:58:19;;;;;;;10.07;4.77;;;;;;;6.50;56.29;99514.03;125404;1104;103019;-75
2021/05/09 05:00:51;;;;;;;13.27;5.33;;;;;;;6.59;56.33;99511.88;125507;1105;103145;-73
2021/05/09 05:03:20;;;;;;;10.53;4.23;;;;;;;6.66;56.63;99514.13;125541;1100;103091;-73
2021/05/09 05:05:49;;;;;;;11.63;5.10;;;;;;;6.74;56.22;99524.31;125496;1099;103016;-74
2021/05/09 05:08:17;;;;;;;13.03;4.63;;;;;;;6.80;56.47;99517.88;125489;1100;103059;-73
2021/05/09 05:10:45;;;;;;;11.20;4.83;;;;;;;6.88;56.60;99513.07;125513;1105;103130;-73
2021/05/09 05:13:21;;;;;;;12.70;4.70;;;;;;;6.97;56.56;99517.03;125517;1104;103275;-75
2021/05/09 05:15:52;;;;;;;13.97;5.30;;;;;;;7.06;56.60;99513.05;125453;1104;103093;-73
2021/05/09 05:18:21;;;;;;;11.63;4.67;;;;;;;7.14;56.75;99508.23;125479;1100;103172;-72
2021/05/09 05:20:55;;;;;;;11.37;4.30;;;;;;;7.22;56.55;99510.47;125522;1104;103084;-76
2021/05/09 05:23:24;;;;;;;10.67;4.03;;;;;;;7.32;56.45;99505.58;125549;1099;102996;-75
2021/05/09 05:25:51;;;;;;;9.93;4.30;;;;;;;7.41;56.40;99500.65;125512;1104;103019;-75
2021/05/09 05:28:20;;;;;;;10.60;4.20;;;;;;;7.54;56.39;99506.14;125437;1104;102988;-75
2021/05/09 05:30:49;;;;;;;10.93;4.40;;;;;;;7.68;56.62;99508.05;125465;1104;102994;-76
2021/05/09 05:33:36;;;;;;;9.07;4.03;;;;;;;7.83;56.71;99506.36;125512;1104;103123;-74
2021/05/09 05:36:05;;;;;;;10.07;4.33;;;;;;;7.96;56.92;99509.19;125578;1104;103249;-76
2021/05/09 05:38:33;;;;;;;10.95;4.40;;;;;;;8.06;56.45;99509.55;125433;1098;103157;-75
2021/05/09 05:41:01;;;;;;;7.77;3.60;;;;;;;8.13;56.73;99507.41;125480;1104;103026;-76
2021/05/09 05:43:32;;;;;;;9.27;4.03;;;;;;;8.21;56.37;99513.14;125522;1104;103037;-75
2021/05/09 05:46:03;;;;;;;10.97;4.00;;;;;;;8.27;56.53;99512.80;125497;1104;103017;-76
2021/05/09 05:48:31;;;;;;;10.07;4.10;;;;;;;8.37;56.60;99512.27;125530;1104;103045;-73
2021/05/09 05:50:59;;;;;;;8.10;3.83;;;;;;;8.46;56.50;99511.75;125498;1100;103065;-75
2021/05/09 05:53:29;;;;;;;10.30;4.23;;;;;;;8.54;56.71;99520.16;125516;1104;103062;-74
2021/05/09 05:55:57;;;;;;;10.03;3.90;;;;;;;8.61;56.34;99508.27;125545;1104;103000;-75
2021/05/09 05:58:25;;;;;;;14.27;4.43;;;;;;;8.72;56.46;99512.10;125478;1104;102993;-73
2021/05/09 06:00:53;;;;;;;5.20;3.07;;;;;;;8.79;56.83;99513.42;125489;1104;103122;-76
2021/05/09 06:03:23;;;;;;;8.37;4.07;;;;;;;8.89;56.69;99516.42;125451;1100;103210;-74
2021/05/09 06:05:54;;;;;;;7.13;3.17;;;;;;;8.96;56.37;99511.59;125365;1104;103186;-73
2021/05/09 06:08:24;;;;;;;7.33;3.57;;;;;;;9.05;56.61;99511.06;125530;1104;103059;-74
2021/05/09 06:10:53;;;;;;;12.00;3.90;;;;;;;9.15;56.38;99503.39;125495;1104;103068;-73
2021/05/09 06:13:23;;;;;;;8.17;3.73;;;;;;;9.24;56.38;99510.81;125504;1104;103145;-74
2021/05/09 06:15:51;;;;;;;8.73;3.40;;;;;;;9.33;56.31;99506.74;125566;1104;103153;-72
2021/05/09 06:18:18;;;;;;;7.93;3.53;;;;;;;9.42;56.33;99510.63;125428;1105;102985;-78
2021/05/09 06:20:48;;;;;;;8.55;3.50;;;;;;;9.48;56.38;99513.78;125688;1099;101800;-80
2021/05/09 06:23:24;;;;;;;10.98;4.23;;;;;;;9.48;56.31;99510.26;125760;1104;103235;-79
2021/05/09 06:25:52;;;;;;;7.60;3.43;;;;;;;9.48;56.18;99513.78;125607;1104;103059;-77
2021/05/09 06:28:20;;;;;;;6.37;3.27;;;;;;;9.53;56.09;99516.14;125478;1098;103027;-78
2021/05/09 06:30:49;;;;;;;8.40;3.40;;;;;;;9.56;56.13;99507.16;125519;1098;102965;-73
2021/05/09 06:33:18;;;;;;;8.63;3.20;;;;;;;9.61;56.18;99505.91;125531;1104;103795;-90
2021/05/09 06:35:46;;;;;;;9.77;3.70;;;;;;;9.67;56.27;99502.88;125715;1104;103122;-82
2021/05/09 06:38:14;;;;;;;6.47;3.13;;;;;;;9.74;56.09;99507.81;125681;1104;103012;-75
2021/05/09 06:40:43;;;;;;;7.37;3.37;;;;;;;9.80;56.03;99512.72;125556;1099;103163;-75
2021/05/09 06:43:11;;;;;;;6.05;3.20;;;;;;;9.87;56.32;99508.73;125285;1099;102981;-78
2021/05/09 06:45:39;;;;;;;6.70;3.17;;;;;;;9.95;56.13;99503.80;125450;1100;103017;-79
2021/05/09 06:48:07;;;;;;;7.53;3.23;;;;;;;10.04;56.13;99490.88;125744;1104;103019;-76
2021/05/09 06:50:35;;;;;;;6.73;2.93;;;;;;;10.13;56.32;99490.30;125446;1100;103227;-76
2021/05/09 06:53:03;;;;;;;6.47;2.90;;;;;;;10.25;56.11;99486.83;125399;1104;103134;-83
2021/05/09 06:55:31;;;;;;;9.20;3.30;;;;;;;10.40;56.02;99481.51;125235;1105;103076;-76
2021/05/09 06:58:01;;;;;;;8.63;3.10;;;;;;;10.55;55.86;99480.52;125451;1104;103007;-77
2021/05/09 07:00:29;;;;;;;6.97;3.20;;;;;;;10.77;55.81;99472.91;125552;1104;103074;-77
2021/05/09 07:02:57;;;;;;;6.00;2.90;;;;;;;11.71;55.15;99470.89;125519;1104;102985;-76
2021/05/09 07:05:25;;;;;;;7.53;3.33;;;;;;;12.98;54.42;99466.14;125468;1100;103106;-76
2021/05/09 07:07:55;;;;;;;4.27;2.53;;;;;;;14.29;54.36;99455.83;125400;1104;103084;-78
2021/05/09 07:10:28;;;;;;;5.73;2.60;;;;;;;16.05;53.46;99451.70;125450;1098;103149;-75
2021/05/09 07:12:55;;;;;;;4.70;2.50;;;;;;;17.51;52.60;99443.73;125404;1100;103469;-76
2021/05/09 07:15:33;;;;;;;5.87;2.97;;;;;;;18.64;53.41;99443.48;125518;1104;103179;-76
2021/05/09 07:18:08;;;;;;;4.27;2.80;;;;;;;19.92;52.93;99445.69;125398;1100;103116;-78
2021/05/09 07:20:40;;;;;;;4.03;2.47;;;;;;;21.01;52.77;99455.66;125400;1104;103094;-74
2021/05/09 07:23:13;;;;;;;4.10;2.27;;;;;;;22.22;52.37;99455.66;125414;1104;103007;-76
2021/05/09 07:25:42;;;;;;;5.30;2.60;;;;;;;23.18;51.86;99451.77;125445;1104;103078;-79
2021/05/09 07:28:13;;;;;;;4.53;2.90;;;;;;;23.97;51.13;99450.38;125574;1104;103176;-77
2021/05/09 07:30:43;;;;;;;5.40;2.80;;;;;;;24.68;51.34;99449.71;125514;1104;103012;-79
2021/05/09 07:33:12;;;;;;;3.63;2.50;;;;;;;24.89;50.24;99460.80;125456;1104;103299;-74
2021/05/09 07:35:42;;;;;;;5.33;2.60;;;;;;;25.07;50.56;99460.33;125538;1104;103145;-79
2021/05/09 07:38:12;;;;;;;4.77;2.50;;;;;;;25.36;49.86;99461.19;125330;1104;103145;-78
2021/05/09 07:40:41;;;;;;;7.07;3.00;;;;;;;25.63;49.61;99464.96;125410;1104;103090;-83
2021/05/09 07:43:15;;;;;;;6.03;3.20;;;;;;;26.19;48.44;99462.31;125756;1104;103076;-82
2021/05/09 07:45:44;;;;;;;4.60;2.70;;;;;;;26.54;48.16;99460.29;125552;1099;103138;-80
2021/05/09 07:48:12;;;;;;;6.10;3.10;;;;;;;26.73;48.28;99463.27;125808;1104;103123;-76
2021/05/09 07:50:41;;;;;;;5.73;2.97;;;;;;;26.31;48.63;99466.10;125516;1104;103014;-77
2021/05/09 07:53:10;;;;;;;4.80;2.60;;;;;;;25.91;47.53;99461.33;125651;1104;103005;-76
2021/05/09 07:55:39;;;;;;;5.30;2.85;;;;;;;26.42;47.86;99465.52;125540;1104;103144;-70
2021/05/09 07:58:20;;;;;;;6.60;2.93;;;;;;;27.06;48.05;99475.30;125543;1104;103108;-73
2021/05/09 08:00:50;;;;;;;3.97;2.90;;;;;;;27.67;47.85;99476.08;125600;1104;103093;-78
2021/05/09 08:03:20;;;;;;;5.35;3.10;;;;;;;28.17;46.52;99464.56;125563;1104;103026;-72
2021/05/09 08:05:51;;;;;;;5.40;2.80;;;;;;;28.67;46.30;99478.39;125526;1100;102984;-71
2021/05/09 08:08:25;;;;;;;4.87;2.97;;;;;;;29.08;46.30;99473.50;125530;1104;102993;-75
2021/05/09 08:10:53;;;;;;;4.40;2.90;;;;;;;29.18;46.19;99478.46;125451;1104;103011;-73
2021/05/09 08:13:21;;;;;;;4.00;2.65;;;;;;;29.28;45.95;99474.38;125548;1104;103058;-82
2021/05/09 08:15:50;;;;;;;5.50;2.80;;;;;;;29.25;44.13;99471.03;125499;1104;103016;-74
2021/05/09 08:18:23;;;;;;;5.40;2.50;;;;;;;29.07;44.03;99465.48;125543;1104;103092;-78
2021/05/09 08:20:52;;;;;;;6.60;2.70;;;;;;;28.84;42.57;99469.69;125601;1100;102993;-77
2021/05/09 08:23:20;;;;;;;4.63;2.57;;;;;;;28.48;42.94;99466.52;125481;1104;102994;-71
2021/05/09 08:25:48;;;;;;;4.07;2.47;;;;;;;28.08;42.27;99467.55;125535;1104;103093;-77
2021/05/09 08:28:17;;;;;;;6.13;2.17;;;;;;;27.92;42.15;99468.02;125522;1104;102992;-72
2021/05/09 08:30:45;;;;;;;4.90;2.13;;;;;;;27.94;42.00;99461.27;125572;1098;103019;-77
2021/05/09 08:33:15;;;;;;;4.10;2.20;;;;;;;28.13;40.88;99472.38;125609;1098;103030;-79
2021/05/09 08:35:43;;;;;;;3.23;2.17;;;;;;;27.90;40.74;99468.25;125522;1104;103163;-78
2021/05/09 08:38:11;;;;;;;4.03;2.23;;;;;;;27.77;40.27;99457.35;125483;1104;102996;-79
2021/05/09 08:40:40;;;;;;;4.90;2.20;;;;;;;27.97;40.71;99456.42;125563;1104;103445;-79
2021/05/09 08:43:09;;;;;;;4.17;2.90;;;;;;;27.90;40.09;99448.26;125574;1104;103518;-77
2021/05/09 08:45:37;;;;;;;3.07;2.47;;;;;;;27.67;39.97;99466.01;125507;1104;102988;-75
2021/05/09 08:48:22;;;;;;;3.50;2.27;;;;;;;27.59;39.44;99460.77;125562;1104;103192;-78
2021/05/09 08:50:52;;;;;;;4.37;2.57;;;;;;;27.55;39.44;99462.24;125498;1104;103086;-75
2021/05/09 08:53:20;;;;;;;3.15;2.20;;;;;;;27.56;38.79;99453.82;125527;1104;103123;-75
2021/05/09 08:55:49;;;;;;;3.20;2.50;;;;;;;27.35;38.14;99457.61;125502;1104;103522;-74
2021/05/09 08:58:17;;;;;;;5.37;2.40;;;;;;;27.14;37.63;99448.61;125515;1104;103212;-74
2021/05/09 09:00:45;;;;;;;3.23;2.67;;;;;;;26.95;37.31;99455.77;125503;1104;103103;-78
2021/05/09 09:03:16;;;;;;;2.10;1.90;;;;;;;26.84;37.48;99440.00;125520;1100;103113;-77
2021/05/09 09:05:46;;;;;;;3.97;2.10;;;;;;;26.85;37.29;99450.73;125537;1100;103075;-77
2021/05/09 09:08:16;;;;;;;3.07;1.80;;;;;;;26.98;37.16;99449.88;125566;1104;103112;-78
2021/05/09 09:10:48;;;;;;;2.20;2.00;;;;;;;26.90;36.89;99444.63;125552;1100;103028;-75
2021/05/09 09:13:19;;;;;;;3.77;2.40;;;;;;;26.80;36.41;99445.02;125499;1104;102987;-76
2021/05/09 09:15:59;;;;;;;4.67;2.60;;;;;;;26.69;36.10;99438.30;125493;1104;103139;-75
2021/05/09 09:18:43;;;;;;;5.37;2.20;;;;;;;26.74;34.88;99445.85;125534;1100;103108;-76
2021/05/09 09:21:30;;;;;;;5.30;2.53;;;;;;;26.72;35.59;99451.50;125603;1100;103084;-79
2021/05/09 09:24:04;;;;;;;6.63;3.40;;;;;;;26.79;35.66;99445.21;125555;1104;103112;-73
2021/05/09 09:26:42;;;;;;;13.73;2.83;;;;;;;27.00;35.64;99438.74;125548;1104;103016;-73
2021/05/09 09:29:28;;;;;;;4.17;2.70;;;;;;;27.31;35.14;99442.70;125550;1104;103077;-68
2021/05/09 09:32:03;;;;;;;5.73;2.33;;;;;;;27.22;34.83;99433.89;125569;1104;103086;-72
2021/05/09 09:34:41;;;;;;;2.73;2.07;;;;;;;26.91;34.77;99451.77;125647;1104;103065;-73
2021/05/09 09:37:12;;;;;;;2.57;2.20;;;;;;;26.73;33.84;99452.36;125521;1104;103138;-78
2021/05/09 09:39:50;;;;;;;4.53;2.53;;;;;;;26.53;33.69;99444.14;125512;1104;103087;-75
2021/05/09 09:42:50;;;;;;;3.47;2.53;;;;;;;26.13;32.83;99445.72;125527;1104;102990;-78
2021/05/09 09:45:28;;;;;;;4.53;2.53;;;;;;;25.21;30.98;99436.80;125402;1100;103253;-70
2021/05/09 09:48:02;;;;;;;5.63;2.63;;;;;;;24.69;32.11;99431.53;125465;1099;102994;-72
2021/05/09 09:50:40;;;;;;;5.17;2.50;;;;;;;25.00;32.42;99438.52;125489;1104;103161;-74
2021/05/09 09:53:31;;;;;;;4.15;2.20;;;;;;;25.50;32.77;99432.20;125550;1104;103058;-75
2021/05/09 09:56:08;;;;;;;2.93;2.37;;;;;;;25.42;32.57;99427.73;125508;1104;103003;-75
2021/05/09 09:58:48;;;;;;;6.90;2.90;;;;;;;25.12;32.64;99427.92;125537;1099;103083;-79
2021/05/09 10:01:27;;;;;;;4.10;2.40;;;;;;;24.90;32.59;99414.38;125522;1104;103088;-71
2021/05/09 10:04:09;;;;;;;6.75;2.65;;;;;;;24.73;32.75;99421.98;125512;1105;103078;-70
2021/05/09 10:06:38;;;;;;;4.47;2.63;;;;;;;24.43;32.23;99418.52;125460;1104;103152;-77
2021/05/09 10:09:08;;;;;;;7.17;2.37;;;;;;;23.94;31.71;99426.30;125525;1104;103029;-77
2021/05/09 10:11:37;;;;;;;5.13;2.53;;;;;;;23.45;31.07;99409.59;125575;1104;103451;-74
2021/05/09 10:14:06;;;;;;;6.43;2.83;;;;;;;22.94;31.05;99415.69;125507;1105;103001;-76
2021/05/09 10:16:41;;;;;;;4.37;2.37;;;;;;;22.53;31.77;99419.59;125540;1100;103047;-78
2021/05/09 10:19:14;;;;;;;4.73;2.77;;;;;;;22.16;30.91;99410.34;125459;1100;103170;-81
2021/05/09 10:21:44;;;;;;;5.47;2.40;;;;;;;21.83;31.18;99415.91;125551;1100;103019;-78
2021/05/09 10:24:23;;;;;;;3.27;2.10;;;;;;;21.63;31.10;99427.17;125631;1105;103166;-81
2021/05/09 10:26:59;;;;;;;4.20;2.20;;;;;;;21.44;30.78;99416.70;125520;1104;103224;-79
2021/05/09 10:29:37;;;;;;;5.80;2.40;;;;;;;21.17;30.47;99407.99;125518;1104;103014;-78
2021/05/09 10:32:29;;;;;;;5.47;2.70;;;;;;;20.80;29.98;99411.09;125498;1104;103086;-76
2021/05/09 10:35:01;;;;;;;3.90;2.37;;;;;;;20.41;29.93;99406.31;125576;1104;103219;-81
2021/05/09 10:37:42;;;;;;;4.63;2.67;;;;;;;20.18;30.65;99411.52;125717;1100;102985;-80
2021/05/09 10:40:20;;;;;;;3.77;2.20;;;;;;;20.01;30.15;99402.53;125774;1104;102987;-79
2021/05/09 10:43:09;;;;;;;2.80;1.97;;;;;;;19.86;30.42;99402.30;125517;1104;103081;-78
2021/05/09 10:45:40;;;;;;;6.10;2.53;;;;;;;19.78;30.29;99400.39;125465;1104;103010;-75
2021/05/09 10:48:15;;;;;;;4.67;2.40;;;;;;;19.74;29.41;99407.15;125509;1104;103043;-72
2021/05/09 10:50:44;;;;;;;3.73;2.40;;;;;;;19.59;29.83;99396.96;125509;1104;103115;-73
2021/05/09 10:53:30;;;;;;;5.43;2.70;;;;;;;19.44;30.03;99394.03;125506;1104;102990;-72
2021/05/09 10:56:01;;;;;;;5.37;2.33;;;;;;;19.25;29.75;99399.64;125527;1100;103062;-74
2021/05/09 10:58:48;;;;;;;7.57;2.77;;;;;;;19.10;29.83;99394.86;125504;1104;103023;-73
2021/05/09 11:01:31;;;;;;;9.33;2.50;;;;;;;19.06;29.98;99406.10;125550;1104;103240;-75
2021/05/09 11:04:04;;;;;;;;;;;;;;;18.99;29.81;99392.42;125557;1104;102380;-72
2021/05/09 11:06:34;;;;;;;5.40;2.10;;;;;;;18.95;30.17;99394.53;125576;1099;103013;-71
2021/05/09 11:09:10;;;;;;;2.67;2.30;;;;;;;18.95;29.56;99409.88;125534;1104;103050;-71
2021/05/09 11:11:38;;;;;;;7.03;2.33;;;;;;;18.78;29.53;99396.27;125519;1100;103142;-73
2021/05/09 11:14:10;;;;;;;3.53;2.07;;;;;;;18.70;29.64;99393.54;125534;1104;103081;-70
2021/05/09 11:17:06;;;;;;;4.00;2.60;;;;;;;18.66;29.41;99397.55;125546;1104;102991;-70
2021/05/09 11:19:39;;;;;;;4.37;2.00;;;;;;;18.58;30.01;99391.08;125459;1104;103130;-72
2021/05/09 11:22:09;;;;;;;4.63;2.10;;;;;;;18.63;30.00;99389.77;125373;1104;103112;-72
2021/05/09 11:24:39;;;;;;;3.43;2.20;;;;;;;18.62;29.94;99394.30;125363;1105;103075;-73
2021/05/09 11:27:08;;;;;;;4.90;2.57;;;;;;;18.66;29.58;99394.84;125440;1104;102991;-72
2021/05/09 11:29:41;;;;;;;5.27;2.20;;;;;;;18.67;30.06;99386.59;125371;1099;103467;-72